Felts Mills, New York
Current Conditions -  °F | °C
As of 8:58 PM on Wednesday 26 Nov 2014 (Local Time) from KGTB Reporting Station
Light Snow Light Snow  
Wind Chill: 17°   Ceiling: 1500
Heat Index: 26°   Visibility: 3mi
Dew Point: 25°   Wind: 8mph
Humidity: 98%   Direction: 30°NNE
Pressure: 30.02"   Gusts: NA
Location:  44.02°N, 75.76°W
Report Text: KGTB 270158Z AUTO 03007KT 3SM -SN BR FEW008 OVC015 M03/M04 A3002 RMK AO2 SLP175 P0001 T10341037
Loading
Personal Weather Stations






























Interactive Weather Map New forecast layout! Learn more

10-Day Weather Forecast

Advertisements
Track Severe Weather on mobile